Аэропорт: Большое Савино. Пермь

ICAO: USPP

METAR:
2020-04-02 21:30:00
USPP 022130Z 22006MPS 9999 SCT034 M00/M03 Q1007 R21/090060 TEMPO 1500 SHSN BKN011CB RMK QFE745
METAR:
2020-04-02 19:58:00
TAF USPP 021958Z 0221/0321 22006G14MPS 9999 SCT030 TEMPO 0221/0224 -SHSN BKN016CB BECMG 0306/0307 SCT020CB TEMPO 0307/0315 -SHRA